sensor_id;sensor_type;location;lat;lon;timestamp;temperature;humidity
30328;DHT22;17133;52.418;13.398;2022-09-20T00:00:48;8.90;99.90
30328;DHT22;17133;52.418;13.398;2022-09-20T00:03:15;9.50;99.90
30328;DHT22;17133;52.418;13.398;2022-09-20T00:05:43;9.50;99.90
30328;DHT22;17133;52.418;13.398;2022-09-20T00:08:13;9.30;99.90
30328;DHT22;17133;52.418;13.398;2022-09-20T00:13:07;9.40;99.90
30328;DHT22;17133;52.418;13.398;2022-09-20T00:18:00;9.40;99.90
30328;DHT22;17133;52.418;13.398;2022-09-20T00:25:19;9.40;99.90
30328;DHT22;17133;52.418;13.398;2022-09-20T00:27:45;9.30;99.90
30328;DHT22;17133;52.418;13.398;2022-09-20T00:30:12;9.30;99.90
30328;DHT22;17133;52.418;13.398;2022-09-20T00:32:38;9.20;99.90
30328;DHT22;17133;52.418;13.398;2022-09-20T00:35:04;9.40;99.90
30328;DHT22;17133;52.418;13.398;2022-09-20T00:37:41;9.30;99.90
30328;DHT22;17133;52.418;13.398;2022-09-20T00:40:11;9.30;99.90
30328;DHT22;17133;52.418;13.398;2022-09-20T00:42:37;9.20;99.90
30328;DHT22;17133;52.418;13.398;2022-09-20T00:45:27;9.30;99.90
30328;DHT22;17133;52.418;13.398;2022-09-20T00:48:05;9.10;99.90
30328;DHT22;17133;52.418;13.398;2022-09-20T00:50:45;9.20;99.90
30328;DHT22;17133;52.418;13.398;2022-09-20T00:53:15;9.20;99.90
30328;DHT22;17133;52.418;13.398;2022-09-20T00:55:55;9.10;99.90
30328;DHT22;17133;52.418;13.398;2022-09-20T00:58:24;9.00;99.90
30328;DHT22;17133;52.418;13.398;2022-09-20T01:00:53;9.20;99.90
30328;DHT22;17133;52.418;13.398;2022-09-20T01:03:20;9.20;99.90
30328;DHT22;17133;52.418;13.398;2022-09-20T01:05:49;9.20;99.90
30328;DHT22;17133;52.418;13.398;2022-09-20T01:08:15;9.90;99.90
30328;DHT22;17133;52.418;13.398;2022-09-20T01:10:42;9.10;99.90
30328;DHT22;17133;52.418;13.398;2022-09-20T01:13:07;9.10;99.90
30328;DHT22;17133;52.418;13.398;2022-09-20T01:15:36;9.10;99.90
30328;DHT22;17133;52.418;13.398;2022-09-20T01:18:04;9.00;99.90
30328;DHT22;17133;52.418;13.398;2022-09-20T01:20:34;9.10;99.90
30328;DHT22;17133;52.418;13.398;2022-09-20T01:28:48;9.00;99.90
30328;DHT22;17133;52.418;13.398;2022-09-20T01:31:28;8.90;99.90
30328;DHT22;17133;52.418;13.398;2022-09-20T01:34:14;8.80;99.90
30328;DHT22;17133;52.418;13.398;2022-09-20T01:39:25;8.80;99.90
30328;DHT22;17133;52.418;13.398;2022-09-20T01:42:01;8.70;99.90
30328;DHT22;17133;52.418;13.398;2022-09-20T02:01:12;8.50;99.90
30328;DHT22;17133;52.418;13.398;2022-09-20T02:06:45;8.50;99.90
30328;DHT22;17133;52.418;13.398;2022-09-20T02:15:23;8.50;99.90
30328;DHT22;17133;52.418;13.398;2022-09-20T02:21:00;8.50;99.90
30328;DHT22;17133;52.418;13.398;2022-09-20T02:23:50;8.50;99.90
30328;DHT22;17133;52.418;13.398;2022-09-20T02:37:47;8.60;99.90
30328;DHT22;17133;52.418;13.398;2022-09-20T02:40:37;8.60;99.90
30328;DHT22;17133;52.418;13.398;2022-09-20T02:48:56;8.60;99.90
30328;DHT22;17133;52.418;13.398;2022-09-20T02:51:41;8.60;99.90
30328;DHT22;17133;52.418;13.398;2022-09-20T02:54:41;8.60;99.90
30328;DHT22;17133;52.418;13.398;2022-09-20T03:00:00;8.60;99.90
30328;DHT22;17133;52.418;13.398;2022-09-20T03:11:56;8.70;99.90
30328;DHT22;17133;52.418;13.398;2022-09-20T03:22:58;8.70;99.90
30328;DHT22;17133;52.418;13.398;2022-09-20T03:25:32;8.70;99.90
30328;DHT22;17133;52.418;13.398;2022-09-20T03:36:28;8.80;99.90
30328;DHT22;17133;52.418;13.398;2022-09-20T04:01:44;9.00;99.90
30328;DHT22;17133;52.418;13.398;2022-09-20T04:04:40;9.00;99.90
30328;DHT22;17133;52.418;13.398;2022-09-20T04:18:40;9.30;99.90
30328;DHT22;17133;52.418;13.398;2022-09-20T04:26:49;9.40;99.90
30328;DHT22;17133;52.418;13.398;2022-09-20T04:32:08;9.40;99.90
30328;DHT22;17133;52.418;13.398;2022-09-20T04:34:45;9.40;99.90
30328;DHT22;17133;52.418;13.398;2022-09-20T04:37:35;9.40;99.90
30328;DHT22;17133;52.418;13.398;2022-09-20T04:59:46;9.40;99.90
30328;DHT22;17133;52.418;13.398;2022-09-20T05:11:11;9.40;99.90
30328;DHT22;17133;52.418;13.398;2022-09-20T05:20:02;9.40;99.90
30328;DHT22;17133;52.418;13.398;2022-09-20T05:28:17;9.50;99.90
30328;DHT22;17133;52.418;13.398;2022-09-20T05:30:48;9.50;99.90
30328;DHT22;17133;52.418;13.398;2022-09-20T05:42:29;9.60;99.90
30328;DHT22;17133;52.418;13.398;2022-09-20T05:45:18;9.70;99.90
30328;DHT22;17133;52.418;13.398;2022-09-20T05:48:23;9.70;99.90
30328;DHT22;17133;52.418;13.398;2022-09-20T05:59:33;9.90;99.90
30328;DHT22;17133;52.418;13.398;2022-09-20T06:04:49;10.00;99.90
30328;DHT22;17133;52.418;13.398;2022-09-20T06:07:20;10.00;99.90
30328;DHT22;17133;52.418;13.398;2022-09-20T06:12:37;10.10;99.90
30328;DHT22;17133;52.418;13.398;2022-09-20T06:15:18;10.10;99.90
30328;DHT22;17133;52.418;13.398;2022-09-20T06:20:38;10.20;99.90
30328;DHT22;17133;52.418;13.398;2022-09-20T06:23:09;10.30;99.90
30328;DHT22;17133;52.418;13.398;2022-09-20T06:25:49;10.40;99.90
30328;DHT22;17133;52.418;13.398;2022-09-20T06:28:18;10.50;99.90
30328;DHT22;17133;52.418;13.398;2022-09-20T06:30:53;10.50;99.90
30328;DHT22;17133;52.418;13.398;2022-09-20T06:33:20;10.60;99.90
30328;DHT22;17133;52.418;13.398;2022-09-20T06:36:09;10.70;99.90
30328;DHT22;17133;52.418;13.398;2022-09-20T06:41:52;10.90;99.90
30328;DHT22;17133;52.418;13.398;2022-09-20T06:44:17;11.00;99.90
30328;DHT22;17133;52.418;13.398;2022-09-20T06:46:43;11.20;99.90
30328;DHT22;17133;52.418;13.398;2022-09-20T06:49:08;11.30;99.90
30328;DHT22;17133;52.418;13.398;2022-09-20T06:51:37;11.50;99.90
30328;DHT22;17133;52.418;13.398;2022-09-20T06:54:04;11.60;99.90
30328;DHT22;17133;52.418;13.398;2022-09-20T06:56:32;11.70;99.90
30328;DHT22;17133;52.418;13.398;2022-09-20T06:59:00;11.80;99.90
30328;DHT22;17133;52.418;13.398;2022-09-20T07:01:26;11.90;99.90
30328;DHT22;17133;52.418;13.398;2022-09-20T07:03:52;12.00;99.90
30328;DHT22;17133;52.418;13.398;2022-09-20T07:06:17;12.20;99.90
30328;DHT22;17133;52.418;13.398;2022-09-20T07:08:47;12.70;99.90
30328;DHT22;17133;52.418;13.398;2022-09-20T07:11:15;13.10;99.90
30328;DHT22;17133;52.418;13.398;2022-09-20T08:00:10;16.20;99.90
30328;DHT22;17133;52.418;13.398;2022-09-20T08:02:36;16.00;99.90
30328;DHT22;17133;52.418;13.398;2022-09-20T08:05:03;15.90;99.90
30328;DHT22;17133;52.418;13.398;2022-09-20T08:07:29;15.70;99.90
30328;DHT22;17133;52.418;13.398;2022-09-20T08:09:54;15.60;99.90
30328;DHT22;17133;52.418;13.398;2022-09-20T08:12:20;15.60;99.90
30328;DHT22;17133;52.418;13.398;2022-09-20T08:14:46;15.60;99.90
30328;DHT22;17133;52.418;13.398;2022-09-20T08:17:11;15.50;99.90
30328;DHT22;17133;52.418;13.398;2022-09-20T08:19:37;15.60;99.90
30328;DHT22;17133;52.418;13.398;2022-09-20T08:24:31;15.50;99.90
30328;DHT22;17133;52.418;13.398;2022-09-20T08:26:57;15.40;99.90
30328;DHT22;17133;52.418;13.398;2022-09-20T08:29:23;15.20;99.90
30328;DHT22;17133;52.418;13.398;2022-09-20T08:31:49;15.10;99.90
30328;DHT22;17133;52.418;13.398;2022-09-20T08:36:45;15.00;99.90
30328;DHT22;17133;52.418;13.398;2022-09-20T08:39:12;15.10;99.90
30328;DHT22;17133;52.418;13.398;2022-09-20T08:41:57;15.20;99.90
30328;DHT22;17133;52.418;13.398;2022-09-20T08:44:32;15.10;99.90
30328;DHT22;17133;52.418;13.398;2022-09-20T10:31:01;15.70;99.90
30328;DHT22;17133;52.418;13.398;2022-09-20T10:39:12;17.00;99.90
30328;DHT22;17133;52.418;13.398;2022-09-20T10:42:03;16.80;99.90
30328;DHT22;17133;52.418;13.398;2022-09-20T10:50:25;17.10;99.90
30328;DHT22;17133;52.418;13.398;2022-09-20T10:56:02;17.20;99.90
30328;DHT22;17133;52.418;13.398;2022-09-20T11:09:03;18.00;99.90
30328;DHT22;17133;52.418;13.398;2022-09-20T11:11:34;18.00;99.90
30328;DHT22;17133;52.418;13.398;2022-09-20T11:14:19;18.10;99.90
30328;DHT22;17133;52.418;13.398;2022-09-20T11:16:56;18.00;99.90
30328;DHT22;17133;52.418;13.398;2022-09-20T11:19:31;17.90;99.90
30328;DHT22;17133;52.418;13.398;2022-09-20T11:22:05;17.90;99.90
30328;DHT22;17133;52.418;13.398;2022-09-20T11:27:44;17.30;99.90
30328;DHT22;17133;52.418;13.398;2022-09-20T11:30:16;17.00;99.90
30328;DHT22;17133;52.418;13.398;2022-09-20T11:35:32;16.80;99.90
30328;DHT22;17133;52.418;13.398;2022-09-20T11:38:39;16.80;99.90
30328;DHT22;17133;52.418;13.398;2022-09-20T11:41:10;17.60;99.90
30328;DHT22;17133;52.418;13.398;2022-09-20T11:43:39;16.10;99.90
30328;DHT22;17133;52.418;13.398;2022-09-20T11:46:12;15.30;99.90
30328;DHT22;17133;52.418;13.398;2022-09-20T11:48:48;15.00;99.90
30328;DHT22;17133;52.418;13.398;2022-09-20T11:51:49;14.70;99.90
30328;DHT22;17133;52.418;13.398;2022-09-20T11:57:02;14.40;99.90
30328;DHT22;17133;52.418;13.398;2022-09-20T11:59:51;14.20;99.90
30328;DHT22;17133;52.418;13.398;2022-09-20T12:02:22;14.00;99.90
30328;DHT22;17133;52.418;13.398;2022-09-20T12:04:50;14.00;99.90
30328;DHT22;17133;52.418;13.398;2022-09-20T12:07:51;13.80;99.90
30328;DHT22;17133;52.418;13.398;2022-09-20T12:10:24;13.70;99.90
30328;DHT22;17133;52.418;13.398;2022-09-20T12:13:02;13.70;99.90
30328;DHT22;17133;52.418;13.398;2022-09-20T12:15:37;13.70;99.90
30328;DHT22;17133;52.418;13.398;2022-09-20T12:18:27;13.70;99.90
30328;DHT22;17133;52.418;13.398;2022-09-20T12:20:57;13.90;99.90
30328;DHT22;17133;52.418;13.398;2022-09-20T12:28:42;14.30;99.90
30328;DHT22;17133;52.418;13.398;2022-09-20T12:39:33;14.80;99.90
30328;DHT22;17133;52.418;13.398;2022-09-20T12:47:21;15.20;99.90
30328;DHT22;17133;52.418;13.398;2022-09-20T12:58:30;14.90;99.90
30328;DHT22;17133;52.418;13.398;2022-09-20T13:03:46;14.90;99.90
30328;DHT22;17133;52.418;13.398;2022-09-20T13:11:49;14.90;99.90
30328;DHT22;17133;52.418;13.398;2022-09-20T13:14:22;14.70;99.90
30328;DHT22;17133;52.418;13.398;2022-09-20T13:19:27;14.00;99.90
30328;DHT22;17133;52.418;13.398;2022-09-20T13:22:11;13.90;99.90
30328;DHT22;17133;52.418;13.398;2022-09-20T18:51:02;10.90;99.90
30328;DHT22;17133;52.418;13.398;2022-09-20T18:53:33;10.90;99.90
30328;DHT22;17133;52.418;13.398;2022-09-20T18:58:56;10.70;99.90
30328;DHT22;17133;52.418;13.398;2022-09-20T19:04:35;10.50;99.90
30328;DHT22;17133;52.418;13.398;2022-09-20T19:26:32;10.40;99.90
30328;DHT22;17133;52.418;13.398;2022-09-20T19:29:07;10.20;99.90
30328;DHT22;17133;52.418;13.398;2022-09-20T19:31:36;10.30;99.90
30328;DHT22;17133;52.418;13.398;2022-09-20T19:34:09;10.30;99.90
30328;DHT22;17133;52.418;13.398;2022-09-20T19:36:59;10.30;99.90
30328;DHT22;17133;52.418;13.398;2022-09-20T19:42:26;10.20;99.90
30328;DHT22;17133;52.418;13.398;2022-09-20T19:48:10;10.00;99.90
30328;DHT22;17133;52.418;13.398;2022-09-20T19:50:44;10.10;99.90
30328;DHT22;17133;52.418;13.398;2022-09-20T19:53:20;10.10;99.90
30328;DHT22;17133;52.418;13.398;2022-09-20T19:55:53;10.00;99.90
30328;DHT22;17133;52.418;13.398;2022-09-20T19:58:20;10.10;99.90
30328;DHT22;17133;52.418;13.398;2022-09-20T20:00:47;10.10;99.90
30328;DHT22;17133;52.418;13.398;2022-09-20T20:03:14;10.00;99.90
30328;DHT22;17133;52.418;13.398;2022-09-20T20:05:56;10.00;99.90
30328;DHT22;17133;52.418;13.398;2022-09-20T20:08:33;10.00;99.90
30328;DHT22;17133;52.418;13.398;2022-09-20T20:11:33;9.90;99.90
30328;DHT22;17133;52.418;13.398;2022-09-20T20:19:58;9.70;99.90
30328;DHT22;17133;52.418;13.398;2022-09-20T20:25:02;9.80;99.90
30328;DHT22;17133;52.418;13.398;2022-09-20T20:27:27;9.70;99.90
30328;DHT22;17133;52.418;13.398;2022-09-20T20:29:54;9.70;99.90
30328;DHT22;17133;52.418;13.398;2022-09-20T20:32:20;9.70;99.90
30328;DHT22;17133;52.418;13.398;2022-09-20T20:37:11;9.60;99.90
30328;DHT22;17133;52.418;13.398;2022-09-20T20:39:37;9.40;99.90
30328;DHT22;17133;52.418;13.398;2022-09-20T20:42:04;9.60;99.90
30328;DHT22;17133;52.418;13.398;2022-09-20T20:44:32;9.50;99.90
30328;DHT22;17133;52.418;13.398;2022-09-20T20:47:02;9.30;99.90
30328;DHT22;17133;52.418;13.398;2022-09-20T20:51:53;9.40;99.90
30328;DHT22;17133;52.418;13.398;2022-09-20T20:54:20;9.50;99.90
30328;DHT22;17133;52.418;13.398;2022-09-20T20:59:14;9.40;99.90
30328;DHT22;17133;52.418;13.398;2022-09-20T21:01:42;9.40;99.90
30328;DHT22;17133;52.418;13.398;2022-09-20T21:04:11;9.40;99.90
30328;DHT22;17133;52.418;13.398;2022-09-20T21:06:38;9.30;99.90
30328;DHT22;17133;52.418;13.398;2022-09-20T21:09:05;9.30;99.90
30328;DHT22;17133;52.418;13.398;2022-09-20T21:11:33;9.30;99.90
30328;DHT22;17133;52.418;13.398;2022-09-20T21:14:01;9.20;99.90
30328;DHT22;17133;52.418;13.398;2022-09-20T21:16:32;9.20;99.90
30328;DHT22;17133;52.418;13.398;2022-09-20T21:19:00;9.20;99.90
30328;DHT22;17133;52.418;13.398;2022-09-20T21:21:31;9.20;99.90
30328;DHT22;17133;52.418;13.398;2022-09-20T21:24:00;9.10;99.90
30328;DHT22;17133;52.418;13.398;2022-09-20T21:26:27;9.10;99.90
30328;DHT22;17133;52.418;13.398;2022-09-20T21:29:02;9.10;99.90
30328;DHT22;17133;52.418;13.398;2022-09-20T21:31:32;9.10;99.90
30328;DHT22;17133;52.418;13.398;2022-09-20T21:33:58;9.10;99.90
30328;DHT22;17133;52.418;13.398;2022-09-20T21:36:26;9.00;99.90
30328;DHT22;17133;52.418;13.398;2022-09-20T21:38:52;9.00;99.90
30328;DHT22;17133;52.418;13.398;2022-09-20T21:43:45;9.00;99.90
30328;DHT22;17133;52.418;13.398;2022-09-20T21:46:19;9.00;99.90
30328;DHT22;17133;52.418;13.398;2022-09-20T21:48:47;8.80;99.90
30328;DHT22;17133;52.418;13.398;2022-09-20T21:51:15;9.00;99.90
30328;DHT22;17133;52.418;13.398;2022-09-20T21:53:41;9.00;99.90
30328;DHT22;17133;52.418;13.398;2022-09-20T21:56:10;9.00;99.90
30328;DHT22;17133;52.418;13.398;2022-09-20T21:58:36;9.00;99.90
30328;DHT22;17133;52.418;13.398;2022-09-20T22:01:10;8.90;99.90
30328;DHT22;17133;52.418;13.398;2022-09-20T22:03:50;8.70;99.90
30328;DHT22;17133;52.418;13.398;2022-09-20T22:06:23;8.90;99.90
30328;DHT22;17133;52.418;13.398;2022-09-20T22:11:18;8.90;99.90
30328;DHT22;17133;52.418;13.398;2022-09-20T22:13:46;8.90;99.90
30328;DHT22;17133;52.418;13.398;2022-09-20T22:16:16;8.70;99.90
30328;DHT22;17133;52.418;13.398;2022-09-20T22:18:43;8.60;99.90
30328;DHT22;17133;52.418;13.398;2022-09-20T22:21:11;8.90;99.90
30328;DHT22;17133;52.418;13.398;2022-09-20T22:23:38;8.60;99.90
30328;DHT22;17133;52.418;13.398;2022-09-20T22:26:06;8.80;99.90
30328;DHT22;17133;52.418;13.398;2022-09-20T22:28:32;8.80;99.90
30328;DHT22;17133;52.418;13.398;2022-09-20T22:31:03;8.80;99.90
30328;DHT22;17133;52.418;13.398;2022-09-20T22:38:22;8.80;99.90
30328;DHT22;17133;52.418;13.398;2022-09-20T22:40:57;8.60;99.90
30328;DHT22;17133;52.418;13.398;2022-09-20T22:43:23;8.80;99.90
30328;DHT22;17133;52.418;13.398;2022-09-20T22:45:49;8.70;99.90
30328;DHT22;17133;52.418;13.398;2022-09-20T22:48:14;8.70;99.90
30328;DHT22;17133;52.418;13.398;2022-09-20T22:50:40;8.70;99.90
30328;DHT22;17133;52.418;13.398;2022-09-20T22:53:05;8.70;99.90
30328;DHT22;17133;52.418;13.398;2022-09-20T22:55:31;8.70;99.90
30328;DHT22;17133;52.418;13.398;2022-09-20T22:57:57;8.70;99.90
30328;DHT22;17133;52.418;13.398;2022-09-20T23:02:48;8.70;99.90
30328;DHT22;17133;52.418;13.398;2022-09-20T23:05:14;8.50;99.90
30328;DHT22;17133;52.418;13.398;2022-09-20T23:07:41;8.60;99.90
30328;DHT22;17133;52.418;13.398;2022-09-20T23:10:07;8.60;99.90
30328;DHT22;17133;52.418;13.398;2022-09-20T23:12:33;8.50;99.90
30328;DHT22;17133;52.418;13.398;2022-09-20T23:14:58;8.60;99.90
30328;DHT22;17133;52.418;13.398;2022-09-20T23:17:24;8.40;99.90
30328;DHT22;17133;52.418;13.398;2022-09-20T23:19:49;8.40;99.90
30328;DHT22;17133;52.418;13.398;2022-09-20T23:27:07;8.50;99.90
30328;DHT22;17133;52.418;13.398;2022-09-20T23:32:00;8.50;99.90
30328;DHT22;17133;52.418;13.398;2022-09-20T23:34:26;8.50;99.90
30328;DHT22;17133;52.418;13.398;2022-09-20T23:36:51;8.40;99.90
30328;DHT22;17133;52.418;13.398;2022-09-20T23:39:17;8.50;99.90
30328;DHT22;17133;52.418;13.398;2022-09-20T23:41:43;8.50;99.90
30328;DHT22;17133;52.418;13.398;2022-09-20T23:44:08;8.50;99.90
30328;DHT22;17133;52.418;13.398;2022-09-20T23:46:36;8.50;99.90
30328;DHT22;17133;52.418;13.398;2022-09-20T23:49:02;8.50;99.90
30328;DHT22;17133;52.418;13.398;2022-09-20T23:51:28;8.40;99.90
30328;DHT22;17133;52.418;13.398;2022-09-20T23:53:55;8.40;99.90
30328;DHT22;17133;52.418;13.398;2022-09-20T23:56:21;8.30;99.90
30328;DHT22;17133;52.418;13.398;2022-09-20T23:58:48;8.40;99.90
